KPTV

Porterville Municipal Airport

Porterville, California, USA
METAR KPTV 191656Z AUTO 21007KT 8SM CLR 29/11 A2996 RMK AO2 SLP149 T02890111
Observed Flight Rules
Aug-19 @ 16:56 UTC (17 minutes ago) Visual Flight Rules
Wind Visibility Clouds
210° at 7 knots 8 miles
  • Clear skies
Temperatures Readings
Current 29°C / 84°F
Dewpoint 11°C / 52°F
Humidity 33%
Altimeter 29.96" Hg
Pressure 1014.9 hPa
Elevation 135
METAR KPTV 191656Z AUTO 21007KT 8SM CLR 29/11 A2996 RMK AO2 SLP149 T02890111
Observed Flight Rules
Aug-19 @ 16:56 UTC
(17 minutes ago)
VFR
Wind Visibility
210° at 7 knots 8 miles
Clouds
  • Clear skies
Temperature Dewpoint
29°C / 84°F 11°C / 52°F
Humidity Altimeter Pressure
33% 29.96" Hg 1014.9 hPa